IrAero SU95 at Moscow on Jan 16th 2020, landed on runway under construction

Last Update: January 17, 2020 / 14:25:07 GMT/Zulu time

Bookmark this article
Incident Facts

Date of incident
Jan 16, 2020

Classification
Incident

Airline
IrAero

Flight number
IO-4284

Aircraft Registration
RA-89078

ICAO Type Designator
SU95

An IrAero Sukhoi Superjet 100-95, registration RA-89078 performing flight IO-4284 from Sabetta to Moscow Domodedovo (Russia), was on approach to Domodedovo's runway 32R however touched down on the runway under construction to the right of runway 32R at 14:15L (11:15Z). The aircraft rolled out without further incident and is currently stuck on the runway. There were no injuries.

Emergency services reported the aircraft landed on a runway under construction, there were no injuries.

On Jan 17th 2020 the Public Relations Department of Moscow's Domodedovo Airport submitted following statement: "At 2:17PM local time, a IrAero Airlines flight from Sabetta to Moscow (DME) landed on a runway under construction near Moscow Domodedovo Airport. The aircraft landed safely; there were no injuries. At 6PM local time, the airport services delivered bags to the passengers."

According to current AIP Russia the runways are named 32L, 32R and 32, the aerodrome chart does not show runway 32 as closed or under construction. ILS CAT I, GLS and RNAV approaches to runway 32 are published, only an RNAV approach is published for runway 32R.

Relevant NOTAM:
A7420/19 NOTAMR A6057/19
Q) UUWV/QMRLC/IV/NBO/A/000/999/5525N03755E005
A) UUDD B) 1912130700 C) 2004302359
E) RWY 14/32 CLSD DUE TO REPAIRS.

Metars:
UUDD 161200Z 24008MPS 8000 OVC008 03/00 Q1016 R88/290042 NOSIG
UUDD 161130Z 24007MPS 8000 OVC007 02/00 Q1016 WS R32L R32L/290040 R32R/290042 NOSIG
UUDD 161100Z 24008MPS 8000 BKN007 02/00 Q1016 R32L/290040 R32R/290042 NOSIG
UUDD 161030Z 23007MPS 8000 -RA BKN007 02/00 Q1016 WS R32L R32L/290040 R32R/290042 NOSIG
UUDD 161000Z 22008MPS 5000 -RA BKN009 02/00 Q1015 R88/290042 NOSIG
UUDD 160930Z 23008G13MPS 7000 -RA BKN011 02/M00 Q1016 R88/290042 NOSIG
Aircraft Registration Data
Registration mark
RA-89078
Country of Registration
Russia
Date of Registration
KkAjqhcndqig Subscribe to unlock
Certification Basis
Manufacturer
Aircraft Model / Type
RRJ-95LR-100
ICAO Aircraft Type
SU95
Serial Number
Engine Count
Incident Facts

Date of incident
Jan 16, 2020

Classification
Incident

Airline
IrAero

Flight number
IO-4284

Aircraft Registration
RA-89078

ICAO Type Designator
SU95

This article is published under license from Avherald.com. © of text by Avherald.com.
Article source

You can read 4 more free articles without a subscription.

Subscribe now and continue reading without any limits!

Are you a subscriber?
Login
Subscribe

Read unlimited articles and receive our daily update briefing. Gain better insights into what is happening in commercial aviation safety.

Free newsletter

Want to know more and stay ahead? Get our free weekly newsletter and join 5233 existing subscribers.

By subscribing, you accept our terms and conditions and confirm that you've read our privacy policy.

Send tip

Support AeroInside by sending a small tip amount.

Related articles

Newest articles

Subscribe today

Are you researching aviation incidents? Get access to AeroInside Insights, unlimited read access and receive the daily newsletter.

Pick your plan and subscribe

Partner

Blockaviation logo

A new way to document and demonstrate airworthiness compliance and aircraft value. Find out more.

Virtual Speech logo

ELITE Simulation Solutions is a leading global provider of Flight Simulation Training Devices, IFR training software as well as flight controls and related services. Find out more.

Get updates

Never miss an article from AeroInside. Subscribe to our free weekly newsletter and join 5233 existing subscribers.

By subscribing, you accept our terms and conditions and that you've read our privacy policy.

AeroInside Blog
Popular aircraft
Airbus A320
Boeing 737-800
Boeing 737-800 MAX
Popular airlines
American Airlines
United
Delta
Air Canada
Lufthansa
British Airways